New Canada, Maine
Current Conditions -  °F | °C
As of 2:53 PM on Thursday 30 Oct 2014 (Local Time) from KFVE Reporting Station
Overcast Overcast  
Wind Chill: 36°   Ceiling: 5000
Heat Index: 43°   Visibility: 10mi
Dew Point: 27°   Wind: 13mph
Humidity: 53%   Direction: 320°NW
Pressure: 29.81"   Gusts: NA
Location:  47.0224°N, 68.6923°W
Report Text: KFVE 301853Z AUTO 32011KT 10SM OVC050 06/M03 A2981 RMK AO2 SLP100 T00611028
Loading
Personal Weather Stations






























Interactive Weather Map
Tropical Storm Tracking
New forecast layout! Learn more

10-Day Weather Forecast

Advertisements
Track Severe Weather on mobile